sensor_id;sensor_type;location;lat;lon;timestamp;P1;durP1;ratioP1;P2;durP2;ratioP2
16824;SDS011;8529;48.108;-1.706;2023-05-07T00:00:47;7.18;;;3.25;;
16824;SDS011;8529;48.108;-1.706;2023-05-07T00:03:14;10.13;;;3.60;;
16824;SDS011;8529;48.108;-1.706;2023-05-07T00:05:41;7.30;;;3.08;;
16824;SDS011;8529;48.108;-1.706;2023-05-07T00:08:10;7.60;;;3.58;;
16824;SDS011;8529;48.108;-1.706;2023-05-07T00:10:37;10.30;;;4.05;;
16824;SDS011;8529;48.108;-1.706;2023-05-07T00:13:04;11.18;;;3.78;;
16824;SDS011;8529;48.108;-1.706;2023-05-07T00:15:31;10.27;;;3.55;;
16824;SDS011;8529;48.108;-1.706;2023-05-07T00:17:58;9.38;;;3.80;;
16824;SDS011;8529;48.108;-1.706;2023-05-07T00:20:24;9.35;;;3.63;;
16824;SDS011;8529;48.108;-1.706;2023-05-07T00:22:51;9.40;;;3.58;;
16824;SDS011;8529;48.108;-1.706;2023-05-07T00:25:20;7.88;;;3.47;;
16824;SDS011;8529;48.108;-1.706;2023-05-07T00:27:47;6.80;;;3.33;;
16824;SDS011;8529;48.108;-1.706;2023-05-07T00:30:14;7.72;;;3.60;;
16824;SDS011;8529;48.108;-1.706;2023-05-07T00:32:41;9.63;;;3.40;;
16824;SDS011;8529;48.108;-1.706;2023-05-07T00:35:10;11.55;;;3.97;;
16824;SDS011;8529;48.108;-1.706;2023-05-07T00:37:37;13.05;;;4.53;;
16824;SDS011;8529;48.108;-1.706;2023-05-07T00:40:04;7.25;;;3.55;;
16824;SDS011;8529;48.108;-1.706;2023-05-07T00:42:34;12.30;;;4.13;;
16824;SDS011;8529;48.108;-1.706;2023-05-07T00:45:01;7.07;;;3.45;;
16824;SDS011;8529;48.108;-1.706;2023-05-07T00:47:29;7.32;;;3.17;;
16824;SDS011;8529;48.108;-1.706;2023-05-07T00:49:56;7.93;;;3.58;;
16824;SDS011;8529;48.108;-1.706;2023-05-07T00:52:23;7.95;;;3.20;;
16824;SDS011;8529;48.108;-1.706;2023-05-07T00:54:52;7.80;;;2.90;;
16824;SDS011;8529;48.108;-1.706;2023-05-07T00:57:20;8.00;;;3.45;;
16824;SDS011;8529;48.108;-1.706;2023-05-07T00:59:49;8.02;;;3.45;;
16824;SDS011;8529;48.108;-1.706;2023-05-07T01:02:17;9.25;;;3.47;;
16824;SDS011;8529;48.108;-1.706;2023-05-07T01:04:44;12.50;;;4.10;;
16824;SDS011;8529;48.108;-1.706;2023-05-07T01:07:11;9.27;;;3.88;;
16824;SDS011;8529;48.108;-1.706;2023-05-07T01:09:39;7.32;;;3.35;;
16824;SDS011;8529;48.108;-1.706;2023-05-07T01:12:06;5.93;;;3.22;;
16824;SDS011;8529;48.108;-1.706;2023-05-07T01:14:34;6.95;;;3.47;;
16824;SDS011;8529;48.108;-1.706;2023-05-07T01:17:02;9.20;;;3.58;;
16824;SDS011;8529;48.108;-1.706;2023-05-07T01:19:29;8.32;;;3.42;;
16824;SDS011;8529;48.108;-1.706;2023-05-07T01:21:59;8.40;;;4.07;;
16824;SDS011;8529;48.108;-1.706;2023-05-07T01:24:31;9.52;;;3.58;;
16824;SDS011;8529;48.108;-1.706;2023-05-07T01:26:58;8.95;;;4.13;;
16824;SDS011;8529;48.108;-1.706;2023-05-07T01:29:26;8.50;;;3.45;;
16824;SDS011;8529;48.108;-1.706;2023-05-07T01:31:53;8.88;;;4.18;;
16824;SDS011;8529;48.108;-1.706;2023-05-07T01:34:22;9.02;;;3.97;;
16824;SDS011;8529;48.108;-1.706;2023-05-07T01:36:52;7.90;;;3.63;;
16824;SDS011;8529;48.108;-1.706;2023-05-07T01:39:20;6.57;;;3.53;;
16824;SDS011;8529;48.108;-1.706;2023-05-07T01:41:50;10.10;;;3.63;;
16824;SDS011;8529;48.108;-1.706;2023-05-07T01:44:17;10.50;;;3.70;;
16824;SDS011;8529;48.108;-1.706;2023-05-07T01:46:45;8.75;;;3.30;;
16824;SDS011;8529;48.108;-1.706;2023-05-07T01:49:13;7.72;;;3.85;;
16824;SDS011;8529;48.108;-1.706;2023-05-07T01:51:40;10.00;;;3.90;;
16824;SDS011;8529;48.108;-1.706;2023-05-07T01:54:08;6.90;;;3.05;;
16824;SDS011;8529;48.108;-1.706;2023-05-07T01:56:35;7.00;;;4.38;;
16824;SDS011;8529;48.108;-1.706;2023-05-07T01:59:03;13.07;;;4.35;;
16824;SDS011;8529;48.108;-1.706;2023-05-07T02:01:30;8.43;;;3.97;;
16824;SDS011;8529;48.108;-1.706;2023-05-07T02:03:57;8.73;;;3.63;;
16824;SDS011;8529;48.108;-1.706;2023-05-07T02:06:24;8.18;;;3.70;;
16824;SDS011;8529;48.108;-1.706;2023-05-07T02:08:51;7.90;;;3.88;;
16824;SDS011;8529;48.108;-1.706;2023-05-07T02:11:18;9.07;;;3.78;;
16824;SDS011;8529;48.108;-1.706;2023-05-07T02:13:45;8.88;;;3.50;;
16824;SDS011;8529;48.108;-1.706;2023-05-07T02:16:13;10.20;;;4.05;;
16824;SDS011;8529;48.108;-1.706;2023-05-07T02:18:40;8.38;;;3.47;;
16824;SDS011;8529;48.108;-1.706;2023-05-07T02:21:07;5.90;;;3.20;;
16824;SDS011;8529;48.108;-1.706;2023-05-07T02:23:34;10.85;;;3.90;;
16824;SDS011;8529;48.108;-1.706;2023-05-07T02:26:00;10.07;;;3.67;;
16824;SDS011;8529;48.108;-1.706;2023-05-07T02:28:27;10.50;;;4.03;;
16824;SDS011;8529;48.108;-1.706;2023-05-07T02:30:54;8.05;;;3.72;;
16824;SDS011;8529;48.108;-1.706;2023-05-07T02:33:24;7.28;;;3.72;;
16824;SDS011;8529;48.108;-1.706;2023-05-07T02:35:51;8.73;;;4.32;;
16824;SDS011;8529;48.108;-1.706;2023-05-07T02:38:18;9.27;;;4.82;;
16824;SDS011;8529;48.108;-1.706;2023-05-07T02:40:45;8.00;;;3.85;;
16824;SDS011;8529;48.108;-1.706;2023-05-07T02:43:12;9.45;;;3.97;;
16824;SDS011;8529;48.108;-1.706;2023-05-07T02:45:39;9.55;;;4.32;;
16824;SDS011;8529;48.108;-1.706;2023-05-07T02:48:06;9.50;;;4.32;;
16824;SDS011;8529;48.108;-1.706;2023-05-07T02:50:34;10.10;;;4.03;;
16824;SDS011;8529;48.108;-1.706;2023-05-07T02:53:01;11.70;;;5.00;;
16824;SDS011;8529;48.108;-1.706;2023-05-07T02:55:28;13.38;;;5.22;;
16824;SDS011;8529;48.108;-1.706;2023-05-07T02:57:55;9.98;;;4.57;;
16824;SDS011;8529;48.108;-1.706;2023-05-07T03:00:23;10.68;;;4.45;;
16824;SDS011;8529;48.108;-1.706;2023-05-07T03:02:50;10.60;;;4.70;;
16824;SDS011;8529;48.108;-1.706;2023-05-07T03:05:17;10.85;;;4.13;;
16824;SDS011;8529;48.108;-1.706;2023-05-07T03:07:45;9.48;;;4.05;;
16824;SDS011;8529;48.108;-1.706;2023-05-07T03:10:12;10.98;;;4.40;;
16824;SDS011;8529;48.108;-1.706;2023-05-07T03:12:39;11.38;;;4.50;;
16824;SDS011;8529;48.108;-1.706;2023-05-07T03:15:07;16.52;;;4.93;;
16824;SDS011;8529;48.108;-1.706;2023-05-07T03:17:35;10.60;;;4.07;;
16824;SDS011;8529;48.108;-1.706;2023-05-07T03:20:02;7.95;;;4.03;;
16824;SDS011;8529;48.108;-1.706;2023-05-07T03:22:30;8.80;;;4.18;;
16824;SDS011;8529;48.108;-1.706;2023-05-07T03:24:58;10.40;;;4.50;;
16824;SDS011;8529;48.108;-1.706;2023-05-07T03:27:25;10.02;;;4.50;;
16824;SDS011;8529;48.108;-1.706;2023-05-07T03:29:51;7.93;;;4.10;;
16824;SDS011;8529;48.108;-1.706;2023-05-07T03:32:18;15.52;;;5.05;;
16824;SDS011;8529;48.108;-1.706;2023-05-07T03:34:45;9.38;;;4.50;;
16824;SDS011;8529;48.108;-1.706;2023-05-07T03:37:12;13.93;;;4.18;;
16824;SDS011;8529;48.108;-1.706;2023-05-07T03:39:39;12.85;;;4.97;;
16824;SDS011;8529;48.108;-1.706;2023-05-07T03:42:07;8.63;;;5.00;;
16824;SDS011;8529;48.108;-1.706;2023-05-07T03:44:34;11.20;;;4.38;;
16824;SDS011;8529;48.108;-1.706;2023-05-07T03:47:02;10.25;;;4.78;;
16824;SDS011;8529;48.108;-1.706;2023-05-07T03:49:29;7.25;;;4.15;;
16824;SDS011;8529;48.108;-1.706;2023-05-07T03:51:56;8.85;;;3.58;;
16824;SDS011;8529;48.108;-1.706;2023-05-07T03:54:22;7.20;;;4.13;;
16824;SDS011;8529;48.108;-1.706;2023-05-07T03:56:49;10.27;;;4.22;;
16824;SDS011;8529;48.108;-1.706;2023-05-07T03:59:17;11.05;;;4.03;;
16824;SDS011;8529;48.108;-1.706;2023-05-07T04:01:44;11.77;;;3.80;;
16824;SDS011;8529;48.108;-1.706;2023-05-07T04:04:11;9.80;;;4.10;;
16824;SDS011;8529;48.108;-1.706;2023-05-07T04:06:38;7.93;;;3.90;;
16824;SDS011;8529;48.108;-1.706;2023-05-07T04:09:06;9.52;;;4.15;;
16824;SDS011;8529;48.108;-1.706;2023-05-07T04:11:33;9.50;;;4.53;;
16824;SDS011;8529;48.108;-1.706;2023-05-07T04:14:00;8.77;;;4.05;;
16824;SDS011;8529;48.108;-1.706;2023-05-07T04:16:29;9.63;;;4.10;;
16824;SDS011;8529;48.108;-1.706;2023-05-07T04:18:56;7.70;;;4.25;;
16824;SDS011;8529;48.108;-1.706;2023-05-07T04:21:23;6.60;;;3.60;;
16824;SDS011;8529;48.108;-1.706;2023-05-07T04:23:51;7.57;;;4.18;;
16824;SDS011;8529;48.108;-1.706;2023-05-07T04:26:18;8.05;;;4.13;;
16824;SDS011;8529;48.108;-1.706;2023-05-07T04:28:46;6.18;;;3.72;;
16824;SDS011;8529;48.108;-1.706;2023-05-07T04:31:13;6.78;;;3.75;;
16824;SDS011;8529;48.108;-1.706;2023-05-07T04:33:41;10.77;;;3.70;;
16824;SDS011;8529;48.108;-1.706;2023-05-07T04:36:08;9.65;;;4.18;;
16824;SDS011;8529;48.108;-1.706;2023-05-07T04:38:35;10.77;;;3.90;;
16824;SDS011;8529;48.108;-1.706;2023-05-07T04:41:04;9.43;;;4.82;;
16824;SDS011;8529;48.108;-1.706;2023-05-07T04:43:32;8.45;;;3.70;;
16824;SDS011;8529;48.108;-1.706;2023-05-07T04:45:59;6.15;;;3.20;;
16824;SDS011;8529;48.108;-1.706;2023-05-07T04:48:26;14.23;;;4.07;;
16824;SDS011;8529;48.108;-1.706;2023-05-07T04:50:55;8.93;;;3.80;;
16824;SDS011;8529;48.108;-1.706;2023-05-07T04:53:22;7.60;;;3.50;;
16824;SDS011;8529;48.108;-1.706;2023-05-07T04:55:49;5.78;;;3.30;;
16824;SDS011;8529;48.108;-1.706;2023-05-07T04:58:20;10.02;;;4.10;;
16824;SDS011;8529;48.108;-1.706;2023-05-07T05:00:47;6.53;;;3.40;;
16824;SDS011;8529;48.108;-1.706;2023-05-07T05:03:14;9.23;;;3.63;;
16824;SDS011;8529;48.108;-1.706;2023-05-07T05:05:41;5.40;;;3.47;;
16824;SDS011;8529;48.108;-1.706;2023-05-07T05:08:09;8.63;;;3.50;;
16824;SDS011;8529;48.108;-1.706;2023-05-07T05:10:36;9.48;;;3.78;;
16824;SDS011;8529;48.108;-1.706;2023-05-07T05:13:03;6.28;;;3.67;;
16824;SDS011;8529;48.108;-1.706;2023-05-07T05:15:30;7.43;;;3.72;;
16824;SDS011;8529;48.108;-1.706;2023-05-07T05:17:57;9.30;;;3.80;;
16824;SDS011;8529;48.108;-1.706;2023-05-07T05:20:24;6.50;;;3.50;;
16824;SDS011;8529;48.108;-1.706;2023-05-07T05:22:50;7.63;;;3.95;;
16824;SDS011;8529;48.108;-1.706;2023-05-07T05:25:19;6.40;;;3.45;;
16824;SDS011;8529;48.108;-1.706;2023-05-07T05:27:46;5.15;;;3.47;;
16824;SDS011;8529;48.108;-1.706;2023-05-07T05:30:13;7.78;;;3.90;;
16824;SDS011;8529;48.108;-1.706;2023-05-07T05:32:40;6.78;;;2.83;;
16824;SDS011;8529;48.108;-1.706;2023-05-07T05:35:07;7.18;;;3.45;;
16824;SDS011;8529;48.108;-1.706;2023-05-07T05:37:34;5.10;;;3.22;;
16824;SDS011;8529;48.108;-1.706;2023-05-07T05:40:01;4.63;;;2.78;;
16824;SDS011;8529;48.108;-1.706;2023-05-07T05:42:30;5.90;;;3.55;;
16824;SDS011;8529;48.108;-1.706;2023-05-07T05:44:57;6.63;;;3.72;;
16824;SDS011;8529;48.108;-1.706;2023-05-07T05:47:24;4.30;;;2.83;;
16824;SDS011;8529;48.108;-1.706;2023-05-07T05:49:51;5.57;;;3.35;;
16824;SDS011;8529;48.108;-1.706;2023-05-07T05:52:18;6.57;;;3.35;;
16824;SDS011;8529;48.108;-1.706;2023-05-07T05:54:44;6.72;;;3.85;;
16824;SDS011;8529;48.108;-1.706;2023-05-07T05:57:11;5.00;;;3.70;;
16824;SDS011;8529;48.108;-1.706;2023-05-07T05:59:40;5.57;;;3.28;;
16824;SDS011;8529;48.108;-1.706;2023-05-07T06:02:06;6.50;;;3.55;;
16824;SDS011;8529;48.108;-1.706;2023-05-07T06:04:33;8.65;;;4.05;;
16824;SDS011;8529;48.108;-1.706;2023-05-07T06:07:00;6.13;;;3.42;;
16824;SDS011;8529;48.108;-1.706;2023-05-07T06:09:27;6.22;;;3.38;;
16824;SDS011;8529;48.108;-1.706;2023-05-07T06:11:54;10.15;;;3.97;;
16824;SDS011;8529;48.108;-1.706;2023-05-07T06:14:21;7.40;;;3.92;;
16824;SDS011;8529;48.108;-1.706;2023-05-07T06:16:49;7.55;;;3.83;;
16824;SDS011;8529;48.108;-1.706;2023-05-07T06:19:16;7.13;;;3.33;;
16824;SDS011;8529;48.108;-1.706;2023-05-07T06:21:48;7.90;;;4.40;;
16824;SDS011;8529;48.108;-1.706;2023-05-07T06:24:15;6.63;;;4.20;;
16824;SDS011;8529;48.108;-1.706;2023-05-07T06:26:41;9.02;;;4.80;;
16824;SDS011;8529;48.108;-1.706;2023-05-07T06:29:08;5.85;;;3.63;;
16824;SDS011;8529;48.108;-1.706;2023-05-07T06:31:35;8.63;;;4.43;;
16824;SDS011;8529;48.108;-1.706;2023-05-07T06:34:03;8.95;;;4.45;;
16824;SDS011;8529;48.108;-1.706;2023-05-07T06:36:30;6.95;;;3.65;;
16824;SDS011;8529;48.108;-1.706;2023-05-07T06:38:57;6.93;;;4.43;;
16824;SDS011;8529;48.108;-1.706;2023-05-07T06:41:24;6.60;;;4.00;;
16824;SDS011;8529;48.108;-1.706;2023-05-07T06:43:51;7.68;;;4.35;;
16824;SDS011;8529;48.108;-1.706;2023-05-07T06:46:18;7.65;;;4.53;;
16824;SDS011;8529;48.108;-1.706;2023-05-07T06:48:45;8.13;;;4.15;;
16824;SDS011;8529;48.108;-1.706;2023-05-07T06:51:13;8.98;;;4.88;;
16824;SDS011;8529;48.108;-1.706;2023-05-07T06:53:40;7.40;;;4.20;;
16824;SDS011;8529;48.108;-1.706;2023-05-07T06:56:07;7.90;;;4.50;;
16824;SDS011;8529;48.108;-1.706;2023-05-07T06:58:34;7.05;;;4.60;;
16824;SDS011;8529;48.108;-1.706;2023-05-07T07:01:01;8.23;;;4.30;;
16824;SDS011;8529;48.108;-1.706;2023-05-07T07:03:27;7.00;;;4.65;;
16824;SDS011;8529;48.108;-1.706;2023-05-07T07:05:54;8.18;;;4.55;;
16824;SDS011;8529;48.108;-1.706;2023-05-07T07:08:23;5.07;;;3.38;;
16824;SDS011;8529;48.108;-1.706;2023-05-07T07:10:50;6.30;;;3.78;;
16824;SDS011;8529;48.108;-1.706;2023-05-07T07:13:17;5.60;;;3.50;;
16824;SDS011;8529;48.108;-1.706;2023-05-07T07:15:44;6.25;;;4.18;;
16824;SDS011;8529;48.108;-1.706;2023-05-07T07:18:11;7.45;;;4.22;;
16824;SDS011;8529;48.108;-1.706;2023-05-07T07:20:38;8.20;;;4.15;;
16824;SDS011;8529;48.108;-1.706;2023-05-07T07:23:05;7.22;;;4.25;;
16824;SDS011;8529;48.108;-1.706;2023-05-07T07:25:33;7.75;;;4.75;;
16824;SDS011;8529;48.108;-1.706;2023-05-07T07:28:00;9.23;;;5.20;;
16824;SDS011;8529;48.108;-1.706;2023-05-07T07:30:27;8.70;;;4.60;;
16824;SDS011;8529;48.108;-1.706;2023-05-07T07:32:54;9.10;;;5.03;;
16824;SDS011;8529;48.108;-1.706;2023-05-07T07:35:27;9.85;;;5.22;;
16824;SDS011;8529;48.108;-1.706;2023-05-07T07:37:54;10.18;;;4.95;;
16824;SDS011;8529;48.108;-1.706;2023-05-07T07:40:20;14.45;;;5.93;;
16824;SDS011;8529;48.108;-1.706;2023-05-07T07:42:49;10.90;;;5.68;;
16824;SDS011;8529;48.108;-1.706;2023-05-07T07:45:16;11.75;;;6.10;;
16824;SDS011;8529;48.108;-1.706;2023-05-07T07:47:43;12.82;;;6.40;;
16824;SDS011;8529;48.108;-1.706;2023-05-07T07:50:10;14.25;;;7.00;;
16824;SDS011;8529;48.108;-1.706;2023-05-07T07:52:37;12.00;;;6.93;;
16824;SDS011;8529;48.108;-1.706;2023-05-07T07:55:04;10.40;;;5.90;;
16824;SDS011;8529;48.108;-1.706;2023-05-07T07:57:32;12.20;;;6.40;;
16824;SDS011;8529;48.108;-1.706;2023-05-07T08:00:00;11.20;;;6.03;;
16824;SDS011;8529;48.108;-1.706;2023-05-07T08:02:27;10.73;;;5.47;;
16824;SDS011;8529;48.108;-1.706;2023-05-07T08:04:55;10.43;;;6.47;;
16824;SDS011;8529;48.108;-1.706;2023-05-07T08:07:22;9.07;;;5.20;;
16824;SDS011;8529;48.108;-1.706;2023-05-07T08:09:48;9.02;;;5.25;;
16824;SDS011;8529;48.108;-1.706;2023-05-07T08:12:15;9.38;;;5.10;;
16824;SDS011;8529;48.108;-1.706;2023-05-07T08:14:42;10.20;;;5.18;;
16824;SDS011;8529;48.108;-1.706;2023-05-07T08:17:10;8.35;;;4.63;;
16824;SDS011;8529;48.108;-1.706;2023-05-07T08:19:40;7.47;;;4.68;;
16824;SDS011;8529;48.108;-1.706;2023-05-07T08:22:07;9.45;;;4.70;;
16824;SDS011;8529;48.108;-1.706;2023-05-07T08:24:35;8.38;;;4.20;;
16824;SDS011;8529;48.108;-1.706;2023-05-07T08:27:03;6.82;;;4.20;;
16824;SDS011;8529;48.108;-1.706;2023-05-07T08:29:29;8.48;;;4.53;;
16824;SDS011;8529;48.108;-1.706;2023-05-07T08:31:56;8.98;;;5.13;;
16824;SDS011;8529;48.108;-1.706;2023-05-07T08:34:25;9.50;;;4.80;;
16824;SDS011;8529;48.108;-1.706;2023-05-07T08:36:51;7.72;;;4.45;;
16824;SDS011;8529;48.108;-1.706;2023-05-07T08:39:18;7.13;;;4.65;;
16824;SDS011;8529;48.108;-1.706;2023-05-07T08:41:45;9.50;;;5.10;;
16824;SDS011;8529;48.108;-1.706;2023-05-07T08:44:14;7.45;;;4.35;;
16824;SDS011;8529;48.108;-1.706;2023-05-07T08:46:43;7.30;;;4.53;;
16824;SDS011;8529;48.108;-1.706;2023-05-07T08:49:13;8.77;;;4.90;;
16824;SDS011;8529;48.108;-1.706;2023-05-07T08:51:42;9.57;;;5.03;;
16824;SDS011;8529;48.108;-1.706;2023-05-07T08:54:09;8.77;;;4.93;;
16824;SDS011;8529;48.108;-1.706;2023-05-07T08:56:37;9.02;;;4.82;;
16824;SDS011;8529;48.108;-1.706;2023-05-07T08:59:05;7.75;;;5.30;;
16824;SDS011;8529;48.108;-1.706;2023-05-07T09:01:32;6.93;;;4.28;;
16824;SDS011;8529;48.108;-1.706;2023-05-07T09:04:01;8.75;;;4.85;;
16824;SDS011;8529;48.108;-1.706;2023-05-07T09:06:28;8.15;;;5.13;;
16824;SDS011;8529;48.108;-1.706;2023-05-07T09:08:56;9.38;;;5.43;;
16824;SDS011;8529;48.108;-1.706;2023-05-07T09:11:26;9.18;;;5.60;;
16824;SDS011;8529;48.108;-1.706;2023-05-07T09:13:53;6.45;;;4.28;;
16824;SDS011;8529;48.108;-1.706;2023-05-07T09:16:21;6.85;;;4.43;;
16824;SDS011;8529;48.108;-1.706;2023-05-07T09:18:50;5.18;;;3.78;;
16824;SDS011;8529;48.108;-1.706;2023-05-07T09:21:18;4.88;;;3.45;;
16824;SDS011;8529;48.108;-1.706;2023-05-07T09:23:47;5.43;;;3.35;;
16824;SDS011;8529;48.108;-1.706;2023-05-07T09:26:16;6.25;;;3.45;;
16824;SDS011;8529;48.108;-1.706;2023-05-07T09:28:43;5.95;;;3.55;;
16824;SDS011;8529;48.108;-1.706;2023-05-07T09:31:11;5.20;;;3.28;;
16824;SDS011;8529;48.108;-1.706;2023-05-07T09:33:38;4.90;;;3.22;;
16824;SDS011;8529;48.108;-1.706;2023-05-07T09:36:07;5.28;;;3.70;;
16824;SDS011;8529;48.108;-1.706;2023-05-07T09:38:35;4.57;;;3.30;;
16824;SDS011;8529;48.108;-1.706;2023-05-07T09:41:03;5.22;;;3.72;;
16824;SDS011;8529;48.108;-1.706;2023-05-07T09:43:32;5.80;;;3.50;;
16824;SDS011;8529;48.108;-1.706;2023-05-07T09:46:02;5.80;;;4.20;;
16824;SDS011;8529;48.108;-1.706;2023-05-07T09:48:29;5.93;;;3.70;;
16824;SDS011;8529;48.108;-1.706;2023-05-07T09:50:58;4.82;;;3.38;;
16824;SDS011;8529;48.108;-1.706;2023-05-07T09:53:29;5.25;;;3.60;;
16824;SDS011;8529;48.108;-1.706;2023-05-07T09:55:57;5.35;;;3.40;;
16824;SDS011;8529;48.108;-1.706;2023-05-07T09:58:25;4.82;;;3.30;;
16824;SDS011;8529;48.108;-1.706;2023-05-07T10:00:54;4.40;;;2.90;;
16824;SDS011;8529;48.108;-1.706;2023-05-07T10:03:22;4.80;;;2.95;;
16824;SDS011;8529;48.108;-1.706;2023-05-07T10:05:53;4.55;;;2.80;;
16824;SDS011;8529;48.108;-1.706;2023-05-07T10:08:20;3.85;;;2.42;;
16824;SDS011;8529;48.108;-1.706;2023-05-07T10:10:47;4.88;;;2.67;;
16824;SDS011;8529;48.108;-1.706;2023-05-07T10:13:16;3.67;;;2.28;;
16824;SDS011;8529;48.108;-1.706;2023-05-07T10:15:44;4.57;;;2.90;;
16824;SDS011;8529;48.108;-1.706;2023-05-07T10:18:13;4.50;;;2.63;;
16824;SDS011;8529;48.108;-1.706;2023-05-07T10:20:41;5.45;;;3.30;;
16824;SDS011;8529;48.108;-1.706;2023-05-07T10:23:12;4.30;;;2.67;;
16824;SDS011;8529;48.108;-1.706;2023-05-07T10:25:43;3.83;;;2.53;;
16824;SDS011;8529;48.108;-1.706;2023-05-07T10:28:10;4.65;;;2.80;;
16824;SDS011;8529;48.108;-1.706;2023-05-07T10:30:40;5.07;;;2.95;;
16824;SDS011;8529;48.108;-1.706;2023-05-07T10:33:16;3.50;;;2.95;;
16824;SDS011;8529;48.108;-1.706;2023-05-07T10:35:48;3.83;;;2.50;;
16824;SDS011;8529;48.108;-1.706;2023-05-07T10:38:15;3.65;;;2.30;;
16824;SDS011;8529;48.108;-1.706;2023-05-07T10:40:43;3.55;;;2.50;;
16824;SDS011;8529;48.108;-1.706;2023-05-07T10:43:10;3.08;;;2.25;;
16824;SDS011;8529;48.108;-1.706;2023-05-07T10:45:37;5.28;;;2.80;;
16824;SDS011;8529;48.108;-1.706;2023-05-07T10:48:11;4.80;;;2.55;;
16824;SDS011;8529;48.108;-1.706;2023-05-07T10:53:21;4.15;;;2.70;;
16824;SDS011;8529;48.108;-1.706;2023-05-07T10:58:54;5.63;;;4.25;;
16824;SDS011;8529;48.108;-1.706;2023-05-07T11:04:17;4.75;;;3.55;;
16824;SDS011;8529;48.108;-1.706;2023-05-07T11:09:56;6.78;;;4.22;;
16824;SDS011;8529;48.108;-1.706;2023-05-07T11:12:46;7.53;;;3.78;;
16824;SDS011;8529;48.108;-1.706;2023-05-07T11:15:14;8.05;;;4.57;;
16824;SDS011;8529;48.108;-1.706;2023-05-07T11:17:52;7.70;;;4.80;;
16824;SDS011;8529;48.108;-1.706;2023-05-07T11:20:20;7.50;;;4.75;;
16824;SDS011;8529;48.108;-1.706;2023-05-07T11:23:12;9.93;;;4.43;;
16824;SDS011;8529;48.108;-1.706;2023-05-07T11:26:15;6.93;;;3.53;;
16824;SDS011;8529;48.108;-1.706;2023-05-07T11:28:42;6.43;;;3.90;;
16824;SDS011;8529;48.108;-1.706;2023-05-07T11:31:10;5.93;;;3.72;;
16824;SDS011;8529;48.108;-1.706;2023-05-07T11:33:37;5.10;;;3.17;;
16824;SDS011;8529;48.108;-1.706;2023-05-07T11:36:05;6.15;;;3.80;;
16824;SDS011;8529;48.108;-1.706;2023-05-07T11:38:35;6.72;;;3.75;;
16824;SDS011;8529;48.108;-1.706;2023-05-07T11:41:03;6.78;;;3.50;;
16824;SDS011;8529;48.108;-1.706;2023-05-07T11:43:30;5.65;;;3.90;;
16824;SDS011;8529;48.108;-1.706;2023-05-07T11:46:04;4.35;;;2.97;;
16824;SDS011;8529;48.108;-1.706;2023-05-07T11:48:33;5.88;;;2.65;;
16824;SDS011;8529;48.108;-1.706;2023-05-07T11:51:02;3.83;;;2.95;;
16824;SDS011;8529;48.108;-1.706;2023-05-07T11:53:36;5.65;;;3.60;;
16824;SDS011;8529;48.108;-1.706;2023-05-07T11:56:07;5.40;;;3.38;;
16824;SDS011;8529;48.108;-1.706;2023-05-07T11:58:35;4.82;;;2.97;;
16824;SDS011;8529;48.108;-1.706;2023-05-07T12:01:03;5.07;;;2.92;;
16824;SDS011;8529;48.108;-1.706;2023-05-07T12:03:30;6.57;;;3.80;;
16824;SDS011;8529;48.108;-1.706;2023-05-07T12:05:57;8.55;;;4.30;;
16824;SDS011;8529;48.108;-1.706;2023-05-07T12:08:25;8.10;;;3.88;;
16824;SDS011;8529;48.108;-1.706;2023-05-07T12:10:54;8.95;;;4.40;;
16824;SDS011;8529;48.108;-1.706;2023-05-07T12:13:22;8.65;;;4.35;;
16824;SDS011;8529;48.108;-1.706;2023-05-07T12:15:51;8.57;;;3.70;;
16824;SDS011;8529;48.108;-1.706;2023-05-07T12:18:18;6.97;;;4.25;;
16824;SDS011;8529;48.108;-1.706;2023-05-07T12:20:46;5.68;;;3.50;;
16824;SDS011;8529;48.108;-1.706;2023-05-07T12:23:13;8.05;;;3.58;;
16824;SDS011;8529;48.108;-1.706;2023-05-07T12:25:42;7.70;;;4.07;;
16824;SDS011;8529;48.108;-1.706;2023-05-07T12:28:13;8.70;;;3.67;;
16824;SDS011;8529;48.108;-1.706;2023-05-07T12:30:42;6.50;;;3.70;;
16824;SDS011;8529;48.108;-1.706;2023-05-07T12:33:09;8.80;;;3.97;;
16824;SDS011;8529;48.108;-1.706;2023-05-07T12:35:37;9.75;;;4.20;;
16824;SDS011;8529;48.108;-1.706;2023-05-07T12:38:07;7.78;;;4.28;;
16824;SDS011;8529;48.108;-1.706;2023-05-07T12:40:36;6.28;;;3.65;;
16824;SDS011;8529;48.108;-1.706;2023-05-07T12:43:03;6.57;;;3.70;;
16824;SDS011;8529;48.108;-1.706;2023-05-07T12:45:31;7.28;;;3.45;;
16824;SDS011;8529;48.108;-1.706;2023-05-07T12:48:04;7.53;;;4.00;;
16824;SDS011;8529;48.108;-1.706;2023-05-07T12:50:31;6.53;;;3.42;;
16824;SDS011;8529;48.108;-1.706;2023-05-07T12:52:59;5.88;;;3.53;;
16824;SDS011;8529;48.108;-1.706;2023-05-07T12:55:28;12.95;;;4.30;;
16824;SDS011;8529;48.108;-1.706;2023-05-07T12:57:55;8.05;;;3.30;;
16824;SDS011;8529;48.108;-1.706;2023-05-07T13:00:37;6.93;;;2.88;;
16824;SDS011;8529;48.108;-1.706;2023-05-07T13:03:05;3.95;;;2.83;;
16824;SDS011;8529;48.108;-1.706;2023-05-07T13:05:32;7.65;;;4.00;;
16824;SDS011;8529;48.108;-1.706;2023-05-07T13:07:59;5.32;;;3.17;;
16824;SDS011;8529;48.108;-1.706;2023-05-07T13:10:26;9.75;;;3.83;;
16824;SDS011;8529;48.108;-1.706;2023-05-07T13:12:53;7.68;;;3.30;;
16824;SDS011;8529;48.108;-1.706;2023-05-07T13:15:20;8.43;;;3.90;;
16824;SDS011;8529;48.108;-1.706;2023-05-07T13:17:49;6.93;;;3.13;;
16824;SDS011;8529;48.108;-1.706;2023-05-07T13:20:16;8.15;;;3.78;;
16824;SDS011;8529;48.108;-1.706;2023-05-07T13:22:43;5.95;;;3.10;;
16824;SDS011;8529;48.108;-1.706;2023-05-07T13:25:10;3.97;;;2.55;;
16824;SDS011;8529;48.108;-1.706;2023-05-07T13:27:37;5.30;;;3.17;;
16824;SDS011;8529;48.108;-1.706;2023-05-07T13:30:04;4.70;;;2.90;;
16824;SDS011;8529;48.108;-1.706;2023-05-07T13:32:32;4.07;;;2.80;;
16824;SDS011;8529;48.108;-1.706;2023-05-07T13:35:00;6.22;;;2.58;;
16824;SDS011;8529;48.108;-1.706;2023-05-07T13:37:28;6.20;;;2.80;;
16824;SDS011;8529;48.108;-1.706;2023-05-07T13:39:55;6.00;;;2.90;;
16824;SDS011;8529;48.108;-1.706;2023-05-07T13:42:22;3.58;;;2.30;;
16824;SDS011;8529;48.108;-1.706;2023-05-07T13:44:48;5.90;;;2.50;;
16824;SDS011;8529;48.108;-1.706;2023-05-07T13:47:15;2.83;;;2.17;;
16824;SDS011;8529;48.108;-1.706;2023-05-07T13:49:42;4.45;;;2.75;;
16824;SDS011;8529;48.108;-1.706;2023-05-07T13:52:11;4.72;;;2.78;;
16824;SDS011;8529;48.108;-1.706;2023-05-07T13:54:38;6.35;;;2.55;;
16824;SDS011;8529;48.108;-1.706;2023-05-07T13:57:05;4.20;;;2.63;;
16824;SDS011;8529;48.108;-1.706;2023-05-07T13:59:32;3.40;;;2.20;;
16824;SDS011;8529;48.108;-1.706;2023-05-07T14:01:59;2.70;;;2.10;;
16824;SDS011;8529;48.108;-1.706;2023-05-07T14:04:26;2.67;;;2.10;;
16824;SDS011;8529;48.108;-1.706;2023-05-07T14:06:53;2.45;;;1.80;;
16824;SDS011;8529;48.108;-1.706;2023-05-07T14:09:22;4.65;;;2.00;;
16824;SDS011;8529;48.108;-1.706;2023-05-07T14:11:49;4.25;;;2.13;;
16824;SDS011;8529;48.108;-1.706;2023-05-07T14:14:16;3.58;;;2.00;;
16824;SDS011;8529;48.108;-1.706;2023-05-07T14:16:43;2.70;;;1.80;;
16824;SDS011;8529;48.108;-1.706;2023-05-07T14:19:10;2.47;;;1.90;;
16824;SDS011;8529;48.108;-1.706;2023-05-07T14:21:37;2.95;;;1.60;;
16824;SDS011;8529;48.108;-1.706;2023-05-07T14:24:05;3.95;;;2.45;;
16824;SDS011;8529;48.108;-1.706;2023-05-07T14:26:34;2.28;;;1.77;;
16824;SDS011;8529;48.108;-1.706;2023-05-07T14:29:01;3.80;;;1.52;;
16824;SDS011;8529;48.108;-1.706;2023-05-07T14:31:28;3.60;;;2.00;;
16824;SDS011;8529;48.108;-1.706;2023-05-07T14:33:55;3.58;;;2.10;;
16824;SDS011;8529;48.108;-1.706;2023-05-07T14:36:23;2.90;;;1.95;;
16824;SDS011;8529;48.108;-1.706;2023-05-07T14:38:51;4.13;;;2.15;;
16824;SDS011;8529;48.108;-1.706;2023-05-07T14:41:18;3.63;;;2.50;;
16824;SDS011;8529;48.108;-1.706;2023-05-07T14:43:47;4.47;;;2.10;;
16824;SDS011;8529;48.108;-1.706;2023-05-07T14:46:16;3.33;;;2.22;;
16824;SDS011;8529;48.108;-1.706;2023-05-07T14:48:43;5.55;;;2.20;;
16824;SDS011;8529;48.108;-1.706;2023-05-07T14:51:11;4.28;;;2.38;;
16824;SDS011;8529;48.108;-1.706;2023-05-07T14:53:37;6.53;;;2.13;;
16824;SDS011;8529;48.108;-1.706;2023-05-07T14:56:05;4.07;;;2.22;;
16824;SDS011;8529;48.108;-1.706;2023-05-07T14:58:32;5.45;;;2.03;;
16824;SDS011;8529;48.108;-1.706;2023-05-07T15:01:00;7.07;;;2.53;;